sensor_id;sensor_type;location;lat;lon;timestamp;pressure;altitude;pressure_sealevel;temperature;humidity
54512;BME280;40419;47.438;19.026;2023-04-06T00:01:14;100046.94;;;0.89;63.42
54512;BME280;40419;47.438;19.026;2023-04-06T00:03:42;100041.31;;;0.73;63.40
54512;BME280;40419;47.438;19.026;2023-04-06T00:06:09;100040.00;;;0.67;64.48
54512;BME280;40419;47.438;19.026;2023-04-06T00:08:35;100036.25;;;0.69;63.09
54512;BME280;40419;47.438;19.026;2023-04-06T00:11:03;100035.63;;;0.56;61.37
54512;BME280;40419;47.438;19.026;2023-04-06T00:13:28;100028.63;;;0.65;60.84
54512;BME280;40419;47.438;19.026;2023-04-06T00:15:56;100040.72;;;0.69;62.07
54512;BME280;40419;47.438;19.026;2023-04-06T00:18:27;100036.59;;;0.96;60.93
54512;BME280;40419;47.438;19.026;2023-04-06T00:20:55;100037.22;;;0.68;63.23
54512;BME280;40419;47.438;19.026;2023-04-06T00:23:23;100021.50;;;0.65;62.03
54512;BME280;40419;47.438;19.026;2023-04-06T00:25:49;100024.78;;;0.79;62.58
54512;BME280;40419;47.438;19.026;2023-04-06T00:28:19;100026.16;;;0.83;62.39
54512;BME280;40419;47.438;19.026;2023-04-06T00:30:53;100023.69;;;0.91;60.56
54512;BME280;40419;47.438;19.026;2023-04-06T00:33:20;100024.03;;;0.77;63.17
54512;BME280;40419;47.438;19.026;2023-04-06T00:35:48;100015.06;;;0.78;62.68
54512;BME280;40419;47.438;19.026;2023-04-06T00:38:17;100013.78;;;0.62;64.21
54512;BME280;40419;47.438;19.026;2023-04-06T00:40:45;100011.94;;;0.63;64.57
54512;BME280;40419;47.438;19.026;2023-04-06T00:43:11;100006.59;;;0.53;65.93
54512;BME280;40419;47.438;19.026;2023-04-06T00:45:40;100006.72;;;0.51;63.56
54512;BME280;40419;47.438;19.026;2023-04-06T00:48:08;100001.31;;;0.73;63.91
54512;BME280;40419;47.438;19.026;2023-04-06T00:50:34;100013.19;;;0.59;63.78
54512;BME280;40419;47.438;19.026;2023-04-06T00:53:03;100000.59;;;0.61;64.54
54512;BME280;40419;47.438;19.026;2023-04-06T00:55:36;100002.72;;;0.77;62.97
54512;BME280;40419;47.438;19.026;2023-04-06T00:58:08;99999.34;;;0.75;62.40
54512;BME280;40419;47.438;19.026;2023-04-06T01:00:45;100002.44;;;0.70;63.55
54512;BME280;40419;47.438;19.026;2023-04-06T01:03:15;100012.38;;;0.68;63.12
54512;BME280;40419;47.438;19.026;2023-04-06T01:05:46;100012.78;;;0.63;64.08
54512;BME280;40419;47.438;19.026;2023-04-06T01:08:24;100007.72;;;0.60;62.45
54512;BME280;40419;47.438;19.026;2023-04-06T01:11:04;100002.84;;;0.65;62.33
54512;BME280;40419;47.438;19.026;2023-04-06T01:13:29;100009.81;;;0.57;61.71
54512;BME280;40419;47.438;19.026;2023-04-06T01:16:00;100000.84;;;0.58;62.24
54512;BME280;40419;47.438;19.026;2023-04-06T01:18:56;100010.09;;;0.63;62.10
54512;BME280;40419;47.438;19.026;2023-04-06T01:21:26;100010.38;;;0.60;61.90
54512;BME280;40419;47.438;19.026;2023-04-06T01:24:07;100006.72;;;0.51;64.28
54512;BME280;40419;47.438;19.026;2023-04-06T01:26:51;100008.66;;;0.49;63.00
54512;BME280;40419;47.438;19.026;2023-04-06T01:29:19;100009.56;;;0.29;62.68
54512;BME280;40419;47.438;19.026;2023-04-06T01:31:47;100005.66;;;0.33;62.80
54512;BME280;40419;47.438;19.026;2023-04-06T01:34:17;100004.84;;;0.42;61.65
54512;BME280;40419;47.438;19.026;2023-04-06T01:36:46;100004.97;;;0.41;61.18
54512;BME280;40419;47.438;19.026;2023-04-06T01:39:30;100001.97;;;0.24;62.47
54512;BME280;40419;47.438;19.026;2023-04-06T01:42:00;100001.91;;;0.45;61.80
54512;BME280;40419;47.438;19.026;2023-04-06T01:44:27;100002.16;;;0.32;62.50
54512;BME280;40419;47.438;19.026;2023-04-06T01:47:07;99996.81;;;0.32;61.09
54512;BME280;40419;47.438;19.026;2023-04-06T01:49:35;99991.63;;;0.31;62.14
54512;BME280;40419;47.438;19.026;2023-04-06T01:52:06;99997.22;;;0.28;62.31
54512;BME280;40419;47.438;19.026;2023-04-06T01:54:34;99992.94;;;0.37;62.62
54512;BME280;40419;47.438;19.026;2023-04-06T01:57:13;99998.59;;;0.22;62.88
54512;BME280;40419;47.438;19.026;2023-04-06T01:59:46;99999.91;;;0.38;63.60
54512;BME280;40419;47.438;19.026;2023-04-06T02:02:23;99989.34;;;0.57;62.41
54512;BME280;40419;47.438;19.026;2023-04-06T02:04:58;99986.59;;;0.38;61.23
54512;BME280;40419;47.438;19.026;2023-04-06T02:07:24;99985.88;;;0.26;63.03
54512;BME280;40419;47.438;19.026;2023-04-06T02:09:54;99992.78;;;0.38;62.82
54512;BME280;40419;47.438;19.026;2023-04-06T02:12:32;99983.41;;;0.13;63.70
54512;BME280;40419;47.438;19.026;2023-04-06T02:15:00;99986.91;;;0.13;64.86
54512;BME280;40419;47.438;19.026;2023-04-06T02:17:28;99981.19;;;0.18;63.36
54512;BME280;40419;47.438;19.026;2023-04-06T02:19:56;99983.63;;;0.31;63.97
54512;BME280;40419;47.438;19.026;2023-04-06T02:22:29;99971.00;;;0.23;63.39
54512;BME280;40419;47.438;19.026;2023-04-06T02:25:09;99972.63;;;0.14;64.59
54512;BME280;40419;47.438;19.026;2023-04-06T02:27:38;99970.13;;;0.23;64.49
54512;BME280;40419;47.438;19.026;2023-04-06T02:30:04;99964.44;;;0.37;63.41
54512;BME280;40419;47.438;19.026;2023-04-06T02:32:35;99967.88;;;0.18;64.20
54512;BME280;40419;47.438;19.026;2023-04-06T02:35:03;99961.78;;;0.27;63.71
54512;BME280;40419;47.438;19.026;2023-04-06T02:37:31;99967.66;;;0.31;63.50
54512;BME280;40419;47.438;19.026;2023-04-06T02:39:58;99959.81;;;0.39;62.21
54512;BME280;40419;47.438;19.026;2023-04-06T02:42:25;99965.00;;;0.41;62.95
54512;BME280;40419;47.438;19.026;2023-04-06T02:44:52;99959.25;;;0.35;63.18
54512;BME280;40419;47.438;19.026;2023-04-06T02:47:22;99956.88;;;0.32;62.19
54512;BME280;40419;47.438;19.026;2023-04-06T02:49:50;99957.84;;;0.31;62.89
54512;BME280;40419;47.438;19.026;2023-04-06T02:52:18;99955.16;;;0.31;63.14
54512;BME280;40419;47.438;19.026;2023-04-06T02:54:45;99954.63;;;0.38;63.02
54512;BME280;40419;47.438;19.026;2023-04-06T02:57:14;99955.84;;;0.24;62.68
54512;BME280;40419;47.438;19.026;2023-04-06T02:59:46;99952.50;;;0.31;62.68
54512;BME280;40419;47.438;19.026;2023-04-06T03:02:23;99958.34;;;0.56;62.16
54512;BME280;40419;47.438;19.026;2023-04-06T03:05:02;99956.75;;;0.44;62.88
54512;BME280;40419;47.438;19.026;2023-04-06T03:07:33;99954.19;;;0.32;63.48
54512;BME280;40419;47.438;19.026;2023-04-06T03:09:58;99945.25;;;0.33;61.90
54512;BME280;40419;47.438;19.026;2023-04-06T03:12:27;99950.09;;;0.19;61.47
54512;BME280;40419;47.438;19.026;2023-04-06T03:15:21;99951.53;;;0.32;62.28
54512;BME280;40419;47.438;19.026;2023-04-06T03:17:54;99952.47;;;0.22;62.50
54512;BME280;40419;47.438;19.026;2023-04-06T03:20:39;99952.16;;;0.15;64.30
54512;BME280;40419;47.438;19.026;2023-04-06T03:23:08;99956.53;;;0.16;62.72
54512;BME280;40419;47.438;19.026;2023-04-06T03:25:38;99948.44;;;0.27;62.32
54512;BME280;40419;47.438;19.026;2023-04-06T03:28:11;99953.66;;;0.29;63.08
54512;BME280;40419;47.438;19.026;2023-04-06T03:30:46;99951.38;;;0.24;63.20
54512;BME280;40419;47.438;19.026;2023-04-06T03:33:18;99954.63;;;0.38;62.28
54512;BME280;40419;47.438;19.026;2023-04-06T03:35:51;99953.44;;;0.21;62.44
54512;BME280;40419;47.438;19.026;2023-04-06T03:38:22;99961.31;;;0.22;62.18
54512;BME280;40419;47.438;19.026;2023-04-06T03:40:50;99960.59;;;0.20;62.30
54512;BME280;40419;47.438;19.026;2023-04-06T03:43:19;99959.97;;;0.07;63.19
54512;BME280;40419;47.438;19.026;2023-04-06T03:45:47;99959.47;;;-0.08;63.98
54512;BME280;40419;47.438;19.026;2023-04-06T03:48:16;99964.59;;;0.05;63.73
54512;BME280;40419;47.438;19.026;2023-04-06T03:50:47;99950.50;;;0.14;61.47
54512;BME280;40419;47.438;19.026;2023-04-06T03:53:15;99962.94;;;0.13;62.58
54512;BME280;40419;47.438;19.026;2023-04-06T03:55:43;99958.00;;;-0.01;63.14
54512;BME280;40419;47.438;19.026;2023-04-06T03:58:08;99951.38;;;-0.07;63.78
54512;BME280;40419;47.438;19.026;2023-04-06T04:00:36;99951.09;;;-0.04;62.66
54512;BME280;40419;47.438;19.026;2023-04-06T04:03:04;99949.50;;;0.15;63.48
54512;BME280;40419;47.438;19.026;2023-04-06T04:05:32;99949.13;;;-0.02;63.15
54512;BME280;40419;47.438;19.026;2023-04-06T04:08:02;99947.81;;;-0.17;63.73
54512;BME280;40419;47.438;19.026;2023-04-06T04:10:30;99950.69;;;-0.30;64.47
54512;BME280;40419;47.438;19.026;2023-04-06T04:12:56;99947.94;;;-0.19;65.24
54512;BME280;40419;47.438;19.026;2023-04-06T04:15:24;99949.78;;;-0.09;64.77
54512;BME280;40419;47.438;19.026;2023-04-06T04:17:55;99939.22;;;0.01;65.28
54512;BME280;40419;47.438;19.026;2023-04-06T04:20:20;99947.22;;;-0.21;63.37
54512;BME280;40419;47.438;19.026;2023-04-06T04:22:49;99949.22;;;-0.13;63.68
54512;BME280;40419;47.438;19.026;2023-04-06T04:25:15;99939.38;;;-0.22;63.93
54512;BME280;40419;47.438;19.026;2023-04-06T04:27:47;99954.56;;;-0.13;65.00
54512;BME280;40419;47.438;19.026;2023-04-06T04:30:14;99947.53;;;-0.14;65.79
54512;BME280;40419;47.438;19.026;2023-04-06T04:32:42;99949.09;;;-0.11;64.75
54512;BME280;40419;47.438;19.026;2023-04-06T04:35:16;99939.28;;;-0.11;65.21
54512;BME280;40419;47.438;19.026;2023-04-06T04:37:42;99934.22;;;-0.14;65.08
54512;BME280;40419;47.438;19.026;2023-04-06T04:40:11;99938.31;;;-0.10;64.03
54512;BME280;40419;47.438;19.026;2023-04-06T04:42:48;99935.13;;;-0.04;63.36
54512;BME280;40419;47.438;19.026;2023-04-06T04:45:24;99931.56;;;-0.14;63.86
54512;BME280;40419;47.438;19.026;2023-04-06T04:47:52;99930.50;;;-0.02;64.51
54512;BME280;40419;47.438;19.026;2023-04-06T04:50:22;99926.69;;;0.22;63.05
54512;BME280;40419;47.438;19.026;2023-04-06T04:52:56;99931.63;;;-0.04;64.50
54512;BME280;40419;47.438;19.026;2023-04-06T04:55:24;99926.25;;;0.17;64.77
54512;BME280;40419;47.438;19.026;2023-04-06T04:57:56;99923.63;;;0.27;62.92
54512;BME280;40419;47.438;19.026;2023-04-06T05:00:38;99929.75;;;0.17;62.87
54512;BME280;40419;47.438;19.026;2023-04-06T05:03:09;99922.19;;;0.23;63.07
54512;BME280;40419;47.438;19.026;2023-04-06T05:05:44;99932.16;;;0.21;63.00
54512;BME280;40419;47.438;19.026;2023-04-06T05:08:15;99923.75;;;0.25;63.15
54512;BME280;40419;47.438;19.026;2023-04-06T05:10:44;99931.53;;;0.48;62.81
54512;BME280;40419;47.438;19.026;2023-04-06T05:13:11;99918.91;;;0.40;62.34
54512;BME280;40419;47.438;19.026;2023-04-06T05:15:37;99913.00;;;0.37;62.19
54512;BME280;40419;47.438;19.026;2023-04-06T05:18:14;99905.63;;;0.50;62.52
54512;BME280;40419;47.438;19.026;2023-04-06T05:20:40;99909.41;;;0.57;62.53
54512;BME280;40419;47.438;19.026;2023-04-06T05:23:05;99908.31;;;0.69;62.23
54512;BME280;40419;47.438;19.026;2023-04-06T05:25:31;99904.38;;;0.74;61.40
54512;BME280;40419;47.438;19.026;2023-04-06T05:28:04;99891.88;;;0.55;62.18
54512;BME280;40419;47.438;19.026;2023-04-06T05:30:35;99895.81;;;0.80;61.83
54512;BME280;40419;47.438;19.026;2023-04-06T05:33:11;99892.59;;;0.86;60.99
54512;BME280;40419;47.438;19.026;2023-04-06T05:35:55;99897.22;;;0.64;62.57
54512;BME280;40419;47.438;19.026;2023-04-06T05:38:23;99890.50;;;0.99;61.89
54512;BME280;40419;47.438;19.026;2023-04-06T05:40:56;99892.19;;;1.10;61.57
54512;BME280;40419;47.438;19.026;2023-04-06T05:43:31;99892.88;;;0.83;59.75
54512;BME280;40419;47.438;19.026;2023-04-06T05:45:58;99886.59;;;1.03;60.19
54512;BME280;40419;47.438;19.026;2023-04-06T05:48:24;99872.25;;;1.14;60.58
54512;BME280;40419;47.438;19.026;2023-04-06T05:50:55;99888.78;;;1.37;59.44
54512;BME280;40419;47.438;19.026;2023-04-06T05:53:30;99880.47;;;1.60;60.74
54512;BME280;40419;47.438;19.026;2023-04-06T05:56:02;99885.81;;;1.50;58.84
54512;BME280;40419;47.438;19.026;2023-04-06T05:58:34;99886.09;;;1.57;59.29
54512;BME280;40419;47.438;19.026;2023-04-06T06:01:03;99883.56;;;1.55;59.38
54512;BME280;40419;47.438;19.026;2023-04-06T06:03:40;99886.69;;;1.88;58.30
54512;BME280;40419;47.438;19.026;2023-04-06T06:06:06;99884.19;;;1.87;58.90
54512;BME280;40419;47.438;19.026;2023-04-06T06:09:06;99884.16;;;1.97;58.45
54512;BME280;40419;47.438;19.026;2023-04-06T06:11:41;99871.34;;;2.00;59.16
54512;BME280;40419;47.438;19.026;2023-04-06T06:14:12;99870.75;;;2.06;57.80
54512;BME280;40419;47.438;19.026;2023-04-06T06:16:39;99875.00;;;1.99;56.31
54512;BME280;40419;47.438;19.026;2023-04-06T06:19:15;99880.31;;;2.09;57.58
54512;BME280;40419;47.438;19.026;2023-04-06T06:21:44;99867.59;;;2.21;58.14
54512;BME280;40419;47.438;19.026;2023-04-06T06:24:13;99873.41;;;2.06;56.61
54512;BME280;40419;47.438;19.026;2023-04-06T06:26:41;99859.94;;;2.36;57.31
54512;BME280;40419;47.438;19.026;2023-04-06T06:29:13;99863.97;;;2.40;57.69
54512;BME280;40419;47.438;19.026;2023-04-06T06:31:41;99860.59;;;2.38;57.17
54512;BME280;40419;47.438;19.026;2023-04-06T06:34:09;99873.22;;;2.45;57.57
54512;BME280;40419;47.438;19.026;2023-04-06T06:36:36;99866.47;;;2.69;56.01
54512;BME280;40419;47.438;19.026;2023-04-06T06:39:11;99853.25;;;3.04;55.89
54512;BME280;40419;47.438;19.026;2023-04-06T06:41:36;99853.97;;;2.96;54.83
54512;BME280;40419;47.438;19.026;2023-04-06T06:44:05;99854.13;;;3.12;57.31
54512;BME280;40419;47.438;19.026;2023-04-06T06:46:33;99845.56;;;3.09;54.42
54512;BME280;40419;47.438;19.026;2023-04-06T06:49:01;99857.19;;;3.17;54.03
54512;BME280;40419;47.438;19.026;2023-04-06T06:51:28;99842.59;;;3.38;54.97
54512;BME280;40419;47.438;19.026;2023-04-06T06:53:56;99848.78;;;3.57;52.40
54512;BME280;40419;47.438;19.026;2023-04-06T06:56:24;99837.66;;;3.43;51.81
54512;BME280;40419;47.438;19.026;2023-04-06T06:58:55;99845.81;;;3.68;52.55
54512;BME280;40419;47.438;19.026;2023-04-06T07:01:20;99845.81;;;3.68;51.35
54512;BME280;40419;47.438;19.026;2023-04-06T07:03:46;99847.75;;;3.84;48.58
54512;BME280;40419;47.438;19.026;2023-04-06T07:06:11;99846.72;;;3.85;48.05
54512;BME280;40419;47.438;19.026;2023-04-06T07:08:39;99842.09;;;3.95;47.45
54512;BME280;40419;47.438;19.026;2023-04-06T07:11:07;99843.31;;;4.01;48.30
54512;BME280;40419;47.438;19.026;2023-04-06T07:13:33;99846.53;;;4.13;49.26
54512;BME280;40419;47.438;19.026;2023-04-06T07:16:02;99847.31;;;4.39;47.87
54512;BME280;40419;47.438;19.026;2023-04-06T07:18:30;99841.75;;;4.24;47.87
54512;BME280;40419;47.438;19.026;2023-04-06T07:20:58;99846.56;;;4.21;47.26
54512;BME280;40419;47.438;19.026;2023-04-06T07:23:26;99848.06;;;4.15;46.20
54512;BME280;40419;47.438;19.026;2023-04-06T07:25:58;99849.78;;;3.90;45.88
54512;BME280;40419;47.438;19.026;2023-04-06T07:28:26;99839.00;;;4.08;48.06
54512;BME280;40419;47.438;19.026;2023-04-06T07:30:53;99843.22;;;3.84;46.52
54512;BME280;40419;47.438;19.026;2023-04-06T07:33:21;99844.06;;;3.85;45.43
54512;BME280;40419;47.438;19.026;2023-04-06T07:35:47;99856.19;;;3.97;46.94
54512;BME280;40419;47.438;19.026;2023-04-06T07:38:14;99838.63;;;4.03;46.03
54512;BME280;40419;47.438;19.026;2023-04-06T07:40:47;99834.66;;;4.15;46.24
54512;BME280;40419;47.438;19.026;2023-04-06T07:43:15;99836.34;;;4.16;46.60
54512;BME280;40419;47.438;19.026;2023-04-06T07:45:43;99833.31;;;4.11;46.38
54512;BME280;40419;47.438;19.026;2023-04-06T07:48:10;99840.44;;;4.37;45.94
54512;BME280;40419;47.438;19.026;2023-04-06T07:50:38;99840.38;;;3.86;46.03
54512;BME280;40419;47.438;19.026;2023-04-06T07:53:08;99846.47;;;3.96;45.61
54512;BME280;40419;47.438;19.026;2023-04-06T07:55:34;99840.13;;;3.97;44.95
54512;BME280;40419;47.438;19.026;2023-04-06T07:58:00;99826.72;;;3.97;45.50
54512;BME280;40419;47.438;19.026;2023-04-06T08:00:28;99825.66;;;4.24;46.47
54512;BME280;40419;47.438;19.026;2023-04-06T08:02:58;99822.94;;;4.16;45.76
54512;BME280;40419;47.438;19.026;2023-04-06T08:05:26;99822.66;;;4.36;44.69
54512;BME280;40419;47.438;19.026;2023-04-06T08:07:54;99825.91;;;4.64;45.68
54512;BME280;40419;47.438;19.026;2023-04-06T08:10:19;99829.13;;;4.76;45.55
54512;BME280;40419;47.438;19.026;2023-04-06T08:12:52;99827.03;;;4.45;47.07
54512;BME280;40419;47.438;19.026;2023-04-06T08:15:17;99830.53;;;4.37;44.70
54512;BME280;40419;47.438;19.026;2023-04-06T08:17:48;99830.03;;;4.42;45.84
54512;BME280;40419;47.438;19.026;2023-04-06T08:20:16;99834.75;;;4.40;46.51
54512;BME280;40419;47.438;19.026;2023-04-06T08:22:44;99843.31;;;4.60;45.26
54512;BME280;40419;47.438;19.026;2023-04-06T08:25:14;99833.69;;;4.24;46.05
54512;BME280;40419;47.438;19.026;2023-04-06T08:27:44;99831.03;;;4.33;45.71
54512;BME280;40419;47.438;19.026;2023-04-06T08:30:12;99832.88;;;4.32;46.87
54512;BME280;40419;47.438;19.026;2023-04-06T08:32:42;99825.81;;;4.23;45.52
54512;BME280;40419;47.438;19.026;2023-04-06T08:35:11;99827.88;;;3.95;44.84
54512;BME280;40419;47.438;19.026;2023-04-06T08:37:39;99823.59;;;4.10;45.65
54512;BME280;40419;47.438;19.026;2023-04-06T08:40:14;99824.72;;;4.50;47.08
54512;BME280;40419;47.438;19.026;2023-04-06T08:42:40;99814.03;;;4.91;46.48
54512;BME280;40419;47.438;19.026;2023-04-06T08:45:09;99808.34;;;4.86;45.32
54512;BME280;40419;47.438;19.026;2023-04-06T08:47:38;99809.00;;;4.88;46.65
54512;BME280;40419;47.438;19.026;2023-04-06T08:50:06;99805.97;;;5.00;46.56
54512;BME280;40419;47.438;19.026;2023-04-06T08:52:35;99802.13;;;5.19;45.55
54512;BME280;40419;47.438;19.026;2023-04-06T08:55:01;99804.47;;;4.81;46.96
54512;BME280;40419;47.438;19.026;2023-04-06T08:57:30;99804.16;;;5.00;47.20
54512;BME280;40419;47.438;19.026;2023-04-06T09:00:00;99800.59;;;5.41;44.84
54512;BME280;40419;47.438;19.026;2023-04-06T09:02:29;99807.31;;;5.28;44.37
54512;BME280;40419;47.438;19.026;2023-04-06T09:04:56;99803.28;;;5.00;44.25
54512;BME280;40419;47.438;19.026;2023-04-06T09:07:24;99804.94;;;5.25;45.91
54512;BME280;40419;47.438;19.026;2023-04-06T09:09:52;99807.59;;;5.42;44.89
54512;BME280;40419;47.438;19.026;2023-04-06T09:12:29;99795.91;;;5.18;42.71
54512;BME280;40419;47.438;19.026;2023-04-06T09:14:55;99794.91;;;5.03;43.53
54512;BME280;40419;47.438;19.026;2023-04-06T09:17:23;99783.84;;;5.06;44.81
54512;BME280;40419;47.438;19.026;2023-04-06T09:19:52;99794.69;;;5.45;43.70
54512;BME280;40419;47.438;19.026;2023-04-06T09:22:21;99791.88;;;5.30;43.30
54512;BME280;40419;47.438;19.026;2023-04-06T09:24:51;99778.94;;;5.34;43.83
54512;BME280;40419;47.438;19.026;2023-04-06T09:27:17;99778.03;;;5.58;42.03
54512;BME280;40419;47.438;19.026;2023-04-06T09:29:47;99778.94;;;5.34;42.34
54512;BME280;40419;47.438;19.026;2023-04-06T09:32:13;99774.44;;;5.10;41.59
54512;BME280;40419;47.438;19.026;2023-04-06T09:34:42;99770.63;;;5.68;44.18
54512;BME280;40419;47.438;19.026;2023-04-06T09:37:17;99774.47;;;5.74;43.40
54512;BME280;40419;47.438;19.026;2023-04-06T09:39:46;99778.09;;;5.98;41.31
54512;BME280;40419;47.438;19.026;2023-04-06T09:42:23;99771.91;;;5.33;40.75
54512;BME280;40419;47.438;19.026;2023-04-06T09:44:52;99771.66;;;5.59;43.38
54512;BME280;40419;47.438;19.026;2023-04-06T09:47:20;99774.56;;;5.89;41.15
54512;BME280;40419;47.438;19.026;2023-04-06T09:49:50;99779.66;;;5.76;42.27
54512;BME280;40419;47.438;19.026;2023-04-06T09:52:24;99761.97;;;5.90;42.52
54512;BME280;40419;47.438;19.026;2023-04-06T09:54:58;99772.38;;;6.01;41.66
54512;BME280;40419;47.438;19.026;2023-04-06T09:57:28;99767.59;;;5.72;41.41
54512;BME280;40419;47.438;19.026;2023-04-06T10:00:06;99769.50;;;5.46;40.28
54512;BME280;40419;47.438;19.026;2023-04-06T10:02:50;99760.88;;;5.67;40.71
54512;BME280;40419;47.438;19.026;2023-04-06T10:05:33;99766.88;;;5.78;40.54
54512;BME280;40419;47.438;19.026;2023-04-06T10:08:09;99761.13;;;5.89;40.78
54512;BME280;40419;47.438;19.026;2023-04-06T10:10:39;99757.06;;;5.93;40.05
54512;BME280;40419;47.438;19.026;2023-04-06T10:13:10;99746.53;;;6.23;41.50
54512;BME280;40419;47.438;19.026;2023-04-06T10:15:40;99744.25;;;6.43;39.61
54512;BME280;40419;47.438;19.026;2023-04-06T10:18:08;99746.19;;;6.72;40.22
54512;BME280;40419;47.438;19.026;2023-04-06T10:23:13;99738.22;;;7.02;39.91
54512;BME280;40419;47.438;19.026;2023-04-06T10:25:55;99733.75;;;6.95;39.95
54512;BME280;40419;47.438;19.026;2023-04-06T10:28:24;99731.38;;;6.77;39.00
54512;BME280;40419;47.438;19.026;2023-04-06T10:31:05;99726.59;;;7.02;39.43
54512;BME280;40419;47.438;19.026;2023-04-06T10:33:31;99719.75;;;7.14;39.52
54512;BME280;40419;47.438;19.026;2023-04-06T10:36:15;99719.28;;;7.25;40.22
54512;BME280;40419;47.438;19.026;2023-04-06T10:38:41;99722.72;;;7.19;40.43
54512;BME280;40419;47.438;19.026;2023-04-06T10:41:11;99731.41;;;7.06;38.79
54512;BME280;40419;47.438;19.026;2023-04-06T10:43:38;99724.16;;;6.92;37.51
54512;BME280;40419;47.438;19.026;2023-04-06T10:46:11;99728.72;;;7.06;38.04
54512;BME280;40419;47.438;19.026;2023-04-06T10:48:43;99722.44;;;7.29;38.39
54512;BME280;40419;47.438;19.026;2023-04-06T10:51:16;99715.66;;;7.33;38.73
54512;BME280;40419;47.438;19.026;2023-04-06T10:53:47;99715.97;;;7.38;38.33
54512;BME280;40419;47.438;19.026;2023-04-06T10:56:15;99704.16;;;7.39;37.54
54512;BME280;40419;47.438;19.026;2023-04-06T10:58:49;99715.09;;;7.23;37.70
54512;BME280;40419;47.438;19.026;2023-04-06T11:01:19;99690.75;;;7.01;37.99
54512;BME280;40419;47.438;19.026;2023-04-06T11:03:50;99711.94;;;7.04;37.78
54512;BME280;40419;47.438;19.026;2023-04-06T11:06:22;99705.25;;;7.15;37.83
54512;BME280;40419;47.438;19.026;2023-04-06T11:08:51;99712.91;;;7.41;38.80
54512;BME280;40419;47.438;19.026;2023-04-06T11:11:23;99705.53;;;7.50;38.02
54512;BME280;40419;47.438;19.026;2023-04-06T11:13:59;99707.88;;;7.38;37.37
54512;BME280;40419;47.438;19.026;2023-04-06T11:16:25;99711.97;;;7.34;37.40
54512;BME280;40419;47.438;19.026;2023-04-06T11:18:56;99696.00;;;7.33;37.28
54512;BME280;40419;47.438;19.026;2023-04-06T11:24:05;99697.38;;;7.43;37.19
54512;BME280;40419;47.438;19.026;2023-04-06T11:26:30;99697.94;;;7.39;39.06
54512;BME280;40419;47.438;19.026;2023-04-06T11:28:56;99704.25;;;7.46;36.95
54512;BME280;40419;47.438;19.026;2023-04-06T11:31:31;99689.38;;;7.50;37.19
54512;BME280;40419;47.438;19.026;2023-04-06T11:34:08;99685.91;;;7.71;36.87
54512;BME280;40419;47.438;19.026;2023-04-06T11:36:34;99686.97;;;7.55;36.73
54512;BME280;40419;47.438;19.026;2023-04-06T11:39:03;99684.28;;;7.92;36.94
54512;BME280;40419;47.438;19.026;2023-04-06T11:41:28;99690.22;;;7.51;35.97
54512;BME280;40419;47.438;19.026;2023-04-06T11:44:01;99704.25;;;7.61;36.42
54512;BME280;40419;47.438;19.026;2023-04-06T11:46:28;99685.03;;;7.49;36.22
54512;BME280;40419;47.438;19.026;2023-04-06T11:48:58;99680.66;;;7.33;37.71
54512;BME280;40419;47.438;19.026;2023-04-06T11:51:24;99668.38;;;7.60;38.34
54512;BME280;40419;47.438;19.026;2023-04-06T11:53:54;99676.44;;;7.60;35.98
54512;BME280;40419;47.438;19.026;2023-04-06T11:56:24;99687.22;;;7.60;35.65
54512;BME280;40419;47.438;19.026;2023-04-06T11:58:56;99681.66;;;7.62;35.99
54512;BME280;40419;47.438;19.026;2023-04-06T12:01:28;99676.25;;;7.62;37.33
54512;BME280;40419;47.438;19.026;2023-04-06T12:03:56;99675.63;;;7.30;37.58
54512;BME280;40419;47.438;19.026;2023-04-06T12:06:26;99681.31;;;7.35;38.37
54512;BME280;40419;47.438;19.026;2023-04-06T12:08:54;99661.81;;;7.33;38.38
54512;BME280;40419;47.438;19.026;2023-04-06T12:11:22;99666.25;;;7.41;38.31
54512;BME280;40419;47.438;19.026;2023-04-06T12:13:50;99673.25;;;7.35;40.13
54512;BME280;40419;47.438;19.026;2023-04-06T12:16:23;99674.31;;;7.56;38.45
54512;BME280;40419;47.438;19.026;2023-04-06T12:18:51;99670.25;;;7.45;38.79
54512;BME280;40419;47.438;19.026;2023-04-06T12:21:16;99674.16;;;7.27;38.62
54512;BME280;40419;47.438;19.026;2023-04-06T12:23:44;99674.06;;;7.21;39.08
54512;BME280;40419;47.438;19.026;2023-04-06T12:26:12;99671.38;;;7.21;39.63
54512;BME280;40419;47.438;19.026;2023-04-06T12:28:38;99667.66;;;7.22;39.07
54512;BME280;40419;47.438;19.026;2023-04-06T12:31:03;99669.25;;;7.31;38.39
54512;BME280;40419;47.438;19.026;2023-04-06T12:33:31;99674.13;;;7.42;39.12
54512;BME280;40419;47.438;19.026;2023-04-06T12:35:57;99677.13;;;7.48;38.35
54512;BME280;40419;47.438;19.026;2023-04-06T12:38:30;99670.03;;;7.61;38.55
54512;BME280;40419;47.438;19.026;2023-04-06T12:41:00;99674.25;;;7.49;38.02
54512;BME280;40419;47.438;19.026;2023-04-06T12:43:28;99664.47;;;7.63;38.79
54512;BME280;40419;47.438;19.026;2023-04-06T12:45:56;99665.47;;;7.77;39.54
54512;BME280;40419;47.438;19.026;2023-04-06T12:48:24;99673.69;;;7.54;37.49
54512;BME280;40419;47.438;19.026;2023-04-06T12:51:05;99665.09;;;7.65;41.16
54512;BME280;40419;47.438;19.026;2023-04-06T12:53:34;99674.44;;;7.48;42.31
54512;BME280;40419;47.438;19.026;2023-04-06T12:56:02;99652.13;;;7.54;41.83
54512;BME280;40419;47.438;19.026;2023-04-06T12:58:36;99669.81;;;7.26;40.86
54512;BME280;40419;47.438;19.026;2023-04-06T13:01:05;99670.34;;;7.22;39.81
54512;BME280;40419;47.438;19.026;2023-04-06T13:03:32;99676.28;;;7.32;39.87
54512;BME280;40419;47.438;19.026;2023-04-06T13:06:01;99666.63;;;7.23;40.09
54512;BME280;40419;47.438;19.026;2023-04-06T13:08:28;99668.88;;;7.34;40.01
54512;BME280;40419;47.438;19.026;2023-04-06T13:10:54;99662.81;;;7.47;38.12
54512;BME280;40419;47.438;19.026;2023-04-06T13:13:26;99664.56;;;7.55;39.38
54512;BME280;40419;47.438;19.026;2023-04-06T13:15:53;99657.59;;;7.60;37.99
54512;BME280;40419;47.438;19.026;2023-04-06T13:18:23;99655.03;;;7.37;38.25